Time;durP1;ratioP1;P1;durP2;ratioP2;P2;SDS_P1;SDS_P2;PMS_P1;PMS_P2;Temp;Humidity;BMP_temperature;BMP_pressure;BME280_temperature;BME280_humidity;BME280_pressure;Samples;Min_cycle;Max_cycle;Signal;HPM_P1;HPM_P2
2024/01/19 00:00:38;;;;;;;0.15;0.15;;;-0.10;99.90;;;;;;5011437;28;20049;-73
2024/01/19 00:03:04;;;;;;;0.10;0.10;;;-0.10;99.90;;;;;;5018139;28;20129;-73
2024/01/19 00:05:30;;;;;;;1.17;0.40;;;-0.10;99.90;;;;;;4999735;28;20125;-72
2024/01/19 00:07:56;;;;;;;0.93;0.30;;;-0.20;99.90;;;;;;5015781;28;20073;-73
2024/01/19 00:10:22;;;;;;;0.28;0.10;;;-0.20;99.90;;;;;;5013190;28;20520;-73
2024/01/19 00:12:48;;;;;;;0.10;0.10;;;-0.10;99.90;;;;;;5011456;28;20132;-73
2024/01/19 00:15:13;;;;;;;0.90;0.50;;;-0.10;99.90;;;;;;5013161;28;20124;-74
2024/01/19 00:17:39;;;;;;;0.17;0.00;;;-0.20;99.90;;;;;;4995188;28;20052;-73
2024/01/19 00:20:09;;;;;;;0.10;0.10;;;-0.10;99.90;;;;;;4994251;28;20044;-73
2024/01/19 00:22:34;;;;;;;1.65;0.20;;;-0.10;99.90;;;;;;5027349;28;20041;-73
2024/01/19 00:25:00;;;;;;;2.05;0.68;;;-0.20;99.90;;;;;;5012362;28;20042;-73
2024/01/19 00:27:26;;;;;;;0.22;0.20;;;-0.20;99.90;;;;;;5010731;28;20121;-73
2024/01/19 00:29:52;;;;;;;0.98;0.40;;;-0.20;99.90;;;;;;5010351;28;20048;-72
2024/01/19 00:32:17;;;;;;;0.28;0.05;;;-0.30;99.90;;;;;;5011654;28;20405;-73
2024/01/19 00:34:43;;;;;;;0.10;0.10;;;-0.30;99.90;;;;;;5010884;28;20491;-72
2024/01/19 00:37:09;;;;;;;0.50;0.10;;;-0.30;99.90;;;;;;5011058;28;20081;-72
2024/01/19 00:39:34;;;;;;;1.25;0.55;;;-0.40;99.90;;;;;;5010664;28;20119;-72
2024/01/19 00:42:00;;;;;;;0.10;0.10;;;-0.40;99.90;;;;;;5011635;28;20501;-72
2024/01/19 00:44:26;;;;;;;1.17;0.63;;;-0.40;99.90;;;;;;5008757;28;20119;-72
2024/01/19 00:46:51;;;;;;;0.30;0.10;;;-0.40;99.90;;;;;;5010082;28;20551;-72
2024/01/19 00:49:17;;;;;;;0.52;0.32;;;-0.40;99.90;;;;;;5011357;28;20049;-72
2024/01/19 00:51:44;;;;;;;0.65;0.17;;;-0.50;99.90;;;;;;5011653;28;20464;-72
2024/01/19 00:54:10;;;;;;;0.03;0.03;;;-0.40;99.90;;;;;;5010073;28;20037;-72
2024/01/19 00:56:35;;;;;;;0.25;0.25;;;-0.40;99.90;;;;;;5006805;28;20091;-72
2024/01/19 00:59:01;;;;;;;0.08;0.08;;;-0.40;99.90;;;;;;5019594;28;20041;-72
2024/01/19 01:01:27;;;;;;;0.65;0.20;;;-0.40;99.90;;;;;;4997717;28;20057;-72
2024/01/19 01:03:54;;;;;;;0.52;0.25;;;-0.40;99.90;;;;;;5011452;28;20041;-72
2024/01/19 01:06:20;;;;;;;0.00;0.00;;;-0.40;99.90;;;;;;5020589;28;20353;-72
2024/01/19 01:08:46;;;;;;;3.10;0.68;;;-0.40;99.90;;;;;;5011170;28;20041;-72
2024/01/19 01:11:11;;;;;;;0.25;0.10;;;-0.40;99.90;;;;;;5003228;28;20052;-72
2024/01/19 01:13:37;;;;;;;0.17;0.10;;;-0.40;99.90;;;;;;5008488;28;20041;-72
2024/01/19 01:16:03;;;;;;;0.15;0.15;;;-0.40;99.90;;;;;;5008891;28;20136;-72
2024/01/19 01:18:29;;;;;;;3.53;0.52;;;-0.30;99.90;;;;;;5012392;28;20045;-72
2024/01/19 01:20:54;;;;;;;0.73;0.25;;;-0.30;99.90;;;;;;5010122;28;20080;-72
2024/01/19 01:23:20;;;;;;;0.05;0.05;;;-0.20;99.90;;;;;;5010589;28;20493;-72
2024/01/19 01:25:46;;;;;;;3.00;0.38;;;-0.20;99.90;;;;;;5010668;28;20037;-72
2024/01/19 01:28:11;;;;;;;0.00;0.00;;;0.00;99.90;;;;;;5011279;28;20034;-72
2024/01/19 01:30:37;;;;;;;0.00;0.00;;;0.00;99.90;;;;;;5013897;28;20030;-72
2024/01/19 01:33:04;;;;;;;0.00;0.00;;;0.00;99.90;;;;;;5011548;28;20171;-72
2024/01/19 01:35:30;;;;;;;3.65;0.35;;;0.00;99.90;;;;;;5009572;28;20048;-72
2024/01/19 01:37:55;;;;;;;4.28;0.55;;;0.00;99.90;;;;;;5010261;28;20037;-72
2024/01/19 01:40:21;;;;;;;0.05;0.05;;;0.00;99.90;;;;;;5007967;28;20098;-72
2024/01/19 01:42:47;;;;;;;0.00;0.00;;;0.00;99.90;;;;;;5005886;28;20080;-72
2024/01/19 01:45:12;;;;;;;0.10;0.10;;;0.00;99.90;;;;;;5018512;28;20041;-72
2024/01/19 01:47:38;;;;;;;0.15;0.15;;;0.10;99.90;;;;;;5008690;28;20501;-72
2024/01/19 01:50:05;;;;;;;0.00;0.00;;;0.10;99.90;;;;;;5011073;28;20037;-72
2024/01/19 01:52:31;;;;;;;0.17;0.08;;;0.10;99.90;;;;;;4995935;28;20045;-72
2024/01/19 01:54:57;;;;;;;0.10;0.00;;;0.20;99.90;;;;;;5012034;28;20041;-71
2024/01/19 01:57:25;;;;;;;0.30;0.20;;;0.30;99.90;;;;;;5009731;28;20069;-71
2024/01/19 01:59:53;;;;;;;0.05;0.03;;;0.30;99.90;;;;;;5010221;28;20045;-71
2024/01/19 02:02:20;;;;;;;0.25;0.25;;;0.40;99.90;;;;;;4993674;28;20110;-71
2024/01/19 02:04:46;;;;;;;0.00;0.00;;;0.40;99.90;;;;;;5008930;28;20053;-72
2024/01/19 02:07:11;;;;;;;0.25;0.20;;;0.30;99.90;;;;;;5007951;28;20038;-71
2024/01/19 02:09:37;;;;;;;0.05;0.05;;;0.30;99.90;;;;;;4994059;28;20080;-71
2024/01/19 02:12:03;;;;;;;0.10;0.10;;;0.20;99.90;;;;;;5009031;28;20122;-71
2024/01/19 02:14:29;;;;;;;0.63;0.47;;;0.20;99.90;;;;;;5010290;28;20034;-71
2024/01/19 02:16:55;;;;;;;0.38;0.20;;;0.00;99.90;;;;;;4998648;28;20045;-72
2024/01/19 02:19:20;;;;;;;0.30;0.15;;;0.00;99.90;;;;;;5009326;28;20048;-71
2024/01/19 02:21:46;;;;;;;0.25;0.08;;;0.00;99.90;;;;;;5010345;28;20038;-71
2024/01/19 02:24:15;;;;;;;0.00;0.00;;;-0.10;99.90;;;;;;5008960;28;20030;-71
2024/01/19 02:26:41;;;;;;;0.20;0.03;;;-0.20;99.90;;;;;;5009375;28;20987;-72
2024/01/19 02:29:07;;;;;;;0.15;0.10;;;-0.20;99.90;;;;;;5010754;28;20214;-72
2024/01/19 02:31:33;;;;;;;0.00;0.00;;;-0.40;99.90;;;;;;5005929;28;20049;-71
2024/01/19 02:33:59;;;;;;;0.10;0.10;;;-0.40;99.90;;;;;;5014416;28;20038;-72
2024/01/19 02:36:24;;;;;;;0.00;0.00;;;-0.40;99.90;;;;;;5008278;28;20527;-71
2024/01/19 02:38:50;;;;;;;0.00;0.00;;;-0.50;99.90;;;;;;5018447;28;20054;-71
2024/01/19 02:41:16;;;;;;;0.00;0.00;;;-0.50;99.90;;;;;;5010686;28;20517;-72
2024/01/19 02:43:42;;;;;;;0.32;0.28;;;-0.40;99.90;;;;;;5011304;28;20038;-71
2024/01/19 02:46:09;;;;;;;0.00;0.00;;;-0.40;99.90;;;;;;5014252;28;20041;-72
2024/01/19 02:48:34;;;;;;;0.10;0.10;;;-0.30;99.90;;;;;;5008443;28;20034;-72
2024/01/19 02:51:00;;;;;;;0.00;0.00;;;-0.20;99.90;;;;;;5014624;28;20120;-71
2024/01/19 02:53:26;;;;;;;0.77;0.35;;;-0.20;99.90;;;;;;5002774;28;20465;-72
2024/01/19 02:55:51;;;;;;;0.00;0.00;;;-0.10;99.90;;;;;;5006026;28;20037;-71
2024/01/19 02:58:17;;;;;;;0.35;0.05;;;0.00;99.90;;;;;;5013548;28;20037;-71
2024/01/19 03:00:44;;;;;;;0.00;0.00;;;0.00;99.90;;;;;;5011916;28;20467;-71
2024/01/19 03:03:09;;;;;;;0.00;0.00;;;0.00;99.90;;;;;;5013089;28;20045;-72
2024/01/19 03:05:35;;;;;;;0.00;0.00;;;0.10;99.90;;;;;;5013670;28;20029;-71
2024/01/19 03:08:01;;;;;;;0.88;0.08;;;0.00;99.90;;;;;;5012376;28;20092;-72
2024/01/19 03:10:27;;;;;;;1.08;0.10;;;0.10;99.90;;;;;;5030104;28;20036;-72
2024/01/19 03:12:52;;;;;;;0.10;0.03;;;0.10;99.90;;;;;;5001771;28;20034;-71
2024/01/19 03:15:18;;;;;;;0.10;0.10;;;0.10;99.90;;;;;;5013848;28;20069;-71
2024/01/19 03:17:44;;;;;;;0.55;0.13;;;0.10;99.90;;;;;;5013533;28;20045;-72
2024/01/19 03:20:10;;;;;;;0.00;0.00;;;0.10;99.90;;;;;;5012573;28;20075;-72
2024/01/19 03:22:35;;;;;;;0.00;0.00;;;0.10;99.90;;;;;;5012628;28;20051;-72
2024/01/19 03:25:02;;;;;;;0.10;0.00;;;0.00;99.90;;;;;;4996744;28;20053;-72
2024/01/19 03:27:28;;;;;;;2.03;0.10;;;-0.10;99.90;;;;;;5012889;28;20107;-72
2024/01/19 03:29:55;;;;;;;0.15;0.15;;;-0.10;99.90;;;;;;5012990;28;20049;-72
2024/01/19 03:32:21;;;;;;;0.00;0.00;;;-0.20;99.90;;;;;;5013888;28;20139;-72
2024/01/19 03:34:47;;;;;;;0.00;0.00;;;-0.20;99.90;;;;;;5001845;28;20088;-71
2024/01/19 03:37:13;;;;;;;0.10;0.10;;;-0.20;99.90;;;;;;5017465;28;20091;-71
2024/01/19 03:39:39;;;;;;;6.60;0.20;;;-0.10;99.90;;;;;;5013826;28;20085;-72
2024/01/19 03:42:04;;;;;;;0.00;0.00;;;-0.10;99.90;;;;;;5012008;28;20038;-71
2024/01/19 03:44:30;;;;;;;0.35;0.10;;;-0.10;99.90;;;;;;5013724;28;20511;-71
2024/01/19 03:46:59;;;;;;;1.85;0.28;;;-0.10;99.90;;;;;;5012250;28;20072;-71
2024/01/19 03:49:25;;;;;;;0.00;0.00;;;-0.10;99.90;;;;;;5020508;28;20076;-71
2024/01/19 03:52:07;;;;;;;0.55;0.30;;;-0.10;99.90;;;;;;5027993;28;20060;-71
2024/01/19 03:54:34;;;;;;;0.45;0.20;;;-0.10;99.90;;;;;;5012605;28;20079;-71
2024/01/19 03:57:02;;;;;;;0.20;0.20;;;-0.10;99.90;;;;;;5021887;28;20049;-71
2024/01/19 03:59:28;;;;;;;1.65;0.25;;;-0.10;99.90;;;;;;5010428;28;20514;-71
2024/01/19 04:01:55;;;;;;;0.05;0.05;;;-0.10;99.90;;;;;;5010679;28;20065;-71
2024/01/19 04:04:21;;;;;;;0.00;0.00;;;-0.10;99.90;;;;;;5029756;28;20115;-72
2024/01/19 04:06:47;;;;;;;0.00;0.00;;;-0.10;99.90;;;;;;5015026;28;20046;-72
2024/01/19 04:09:15;;;;;;;0.00;0.00;;;-0.10;99.90;;;;;;5013711;28;20451;-72
2024/01/19 04:11:41;;;;;;;0.00;0.00;;;-0.10;99.90;;;;;;4991994;28;20440;-71
2024/01/19 04:14:08;;;;;;;0.00;0.00;;;-0.20;99.90;;;;;;4995019;28;20029;-72
2024/01/19 04:16:34;;;;;;;0.00;0.00;;;-0.20;99.90;;;;;;5011593;28;20049;-72
2024/01/19 04:19:00;;;;;;;0.00;0.00;;;-0.30;99.90;;;;;;5008544;28;20554;-72
2024/01/19 04:21:25;;;;;;;0.03;0.03;;;-0.30;99.90;;;;;;5007261;28;20094;-72
2024/01/19 04:23:51;;;;;;;4.28;0.55;;;-0.30;99.90;;;;;;5010865;28;20033;-72
2024/01/19 04:26:17;;;;;;;0.00;0.00;;;-0.30;99.90;;;;;;5011524;28;20073;-71
2024/01/19 04:28:42;;;;;;;0.03;0.03;;;-0.40;99.90;;;;;;5010704;28;20088;-72
2024/01/19 04:31:08;;;;;;;0.22;0.15;;;-0.40;99.90;;;;;;5003513;28;20049;-71
2024/01/19 04:33:34;;;;;;;0.00;0.00;;;-0.40;99.90;;;;;;5008988;28;20493;-71
2024/01/19 04:36:00;;;;;;;1.45;0.25;;;-0.40;99.90;;;;;;5011419;28;20420;-71
2024/01/19 04:38:26;;;;;;;0.00;0.00;;;-0.50;99.90;;;;;;5007922;28;20050;-72
2024/01/19 04:40:51;;;;;;;0.10;0.10;;;-0.50;99.90;;;;;;5009216;28;20419;-71
2024/01/19 04:43:17;;;;;;;0.00;0.00;;;-0.40;99.90;;;;;;5012264;28;20045;-72
2024/01/19 04:45:44;;;;;;;0.00;0.00;;;-0.50;99.90;;;;;;5011071;28;20056;-71
2024/01/19 04:48:10;;;;;;;0.00;0.00;;;-0.50;99.90;;;;;;5011549;28;20048;-72
2024/01/19 04:50:36;;;;;;;0.00;0.00;;;-0.50;99.90;;;;;;5012849;28;20033;-72
2024/01/19 04:53:01;;;;;;;0.00;0.00;;;-0.50;99.90;;;;;;5011184;28;20033;-72
2024/01/19 04:55:27;;;;;;;0.10;0.10;;;-0.50;99.90;;;;;;5029948;28;20600;-72
2024/01/19 04:57:53;;;;;;;0.35;0.03;;;-0.50;99.90;;;;;;5011621;28;20346;-72
2024/01/19 05:00:21;;;;;;;0.82;0.30;;;-0.50;99.90;;;;;;5011008;28;20047;-72
2024/01/19 05:02:48;;;;;;;0.65;0.38;;;-0.50;99.90;;;;;;5010614;28;20041;-72
2024/01/19 05:05:15;;;;;;;0.00;0.00;;;-0.50;99.90;;;;;;5013471;28;20564;-72
2024/01/19 05:07:40;;;;;;;0.65;0.10;;;-0.50;99.90;;;;;;5016467;28;20042;-72
2024/01/19 05:10:07;;;;;;;0.00;0.00;;;-0.60;99.90;;;;;;4997972;28;20044;-71
2024/01/19 05:12:33;;;;;;;0.03;0.03;;;-0.60;99.90;;;;;;5027225;28;20037;-72
2024/01/19 05:14:59;;;;;;;0.00;0.00;;;-0.50;99.90;;;;;;5011008;28;20447;-72
2024/01/19 05:17:25;;;;;;;0.43;0.00;;;-0.60;99.90;;;;;;5010702;28;20053;-72
2024/01/19 05:19:50;;;;;;;0.10;0.10;;;-0.50;99.90;;;;;;5008236;28;20068;-71
2024/01/19 05:22:16;;;;;;;0.00;0.00;;;-0.60;99.90;;;;;;5026585;28;20045;-72
2024/01/19 05:24:43;;;;;;;0.38;0.22;;;-0.60;99.90;;;;;;5010607;28;20485;-71
2024/01/19 05:27:09;;;;;;;0.00;0.00;;;-0.60;99.90;;;;;;5010986;28;20045;-71
2024/01/19 05:29:35;;;;;;;0.00;0.00;;;-0.60;99.90;;;;;;4995167;28;20040;-72
2024/01/19 05:32:02;;;;;;;0.00;0.00;;;-0.60;99.90;;;;;;4994607;28;20049;-71
2024/01/19 05:34:28;;;;;;;0.10;0.10;;;-0.60;99.90;;;;;;5010114;28;20073;-72
2024/01/19 05:36:53;;;;;;;0.10;0.10;;;-0.70;99.90;;;;;;5009566;28;20076;-72
2024/01/19 05:39:19;;;;;;;0.10;0.10;;;-0.70;99.90;;;;;;5011379;28;20137;-72
2024/01/19 05:41:45;;;;;;;0.00;0.00;;;-0.70;99.90;;;;;;5008408;28;20038;-71
2024/01/19 05:44:11;;;;;;;9.95;0.65;;;-0.70;99.90;;;;;;5010183;28;20045;-71
2024/01/19 05:46:38;;;;;;;0.10;0.00;;;-0.70;99.90;;;;;;5010087;28;20037;-71
2024/01/19 05:49:04;;;;;;;6.72;0.20;;;-0.70;99.90;;;;;;5010697;28;20053;-71
2024/01/19 05:51:31;;;;;;;0.00;0.00;;;-0.70;99.90;;;;;;5019350;28;20409;-71
2024/01/19 05:53:58;;;;;;;0.00;0.00;;;-0.70;99.90;;;;;;5007400;28;20404;-71
2024/01/19 05:56:24;;;;;;;0.00;0.00;;;-0.70;99.90;;;;;;4989999;28;20042;-71
2024/01/19 05:58:50;;;;;;;2.20;0.00;;;-0.80;99.90;;;;;;5011100;28;20045;-71
2024/01/19 06:01:15;;;;;;;0.45;0.45;;;-0.70;99.90;;;;;;4994109;28;20053;-71
2024/01/19 06:03:41;;;;;;;0.20;0.20;;;-0.70;99.90;;;;;;5011158;28;20080;-71
2024/01/19 06:06:07;;;;;;;0.00;0.00;;;-0.70;99.90;;;;;;5003656;28;20076;-71
2024/01/19 06:08:33;;;;;;;0.00;0.00;;;-0.70;99.90;;;;;;5009030;28;20044;-71
2024/01/19 06:10:59;;;;;;;0.00;0.00;;;-0.70;99.90;;;;;;5008921;28;20650;-71
2024/01/19 06:13:24;;;;;;;0.30;0.00;;;-0.60;99.90;;;;;;5004477;28;20046;-71
2024/01/19 06:15:50;;;;;;;0.20;0.20;;;-0.70;99.90;;;;;;5011201;28;20045;-71
2024/01/19 06:18:17;;;;;;;2.65;0.63;;;-0.70;99.90;;;;;;5012787;28;20067;-71
2024/01/19 06:20:43;;;;;;;0.45;0.32;;;-0.70;99.90;;;;;;5013893;28;20038;-71
2024/01/19 06:23:10;;;;;;;6.20;0.10;;;-0.70;99.90;;;;;;5020344;28;20064;-71
2024/01/19 06:25:36;;;;;;;0.00;0.00;;;-0.70;99.90;;;;;;5013117;28;20121;-71
2024/01/19 06:28:02;;;;;;;0.00;0.00;;;-0.70;99.90;;;;;;5012241;28;20489;-71
2024/01/19 06:30:29;;;;;;;0.60;0.10;;;-0.70;99.90;;;;;;5023583;28;20039;-71
2024/01/19 06:32:55;;;;;;;0.00;0.00;;;-0.70;99.90;;;;;;5010041;28;20068;-70
2024/01/19 06:35:21;;;;;;;0.08;0.05;;;-0.60;99.90;;;;;;5009380;28;20037;-71
2024/01/19 06:37:46;;;;;;;0.10;0.10;;;-0.50;99.90;;;;;;5012932;28;20044;-71
2024/01/19 06:40:14;;;;;;;0.00;0.00;;;-0.40;99.90;;;;;;5008895;28;20040;-71
2024/01/19 06:42:43;;;;;;;0.00;0.00;;;-0.40;99.90;;;;;;5013191;28;20041;-71
2024/01/19 06:45:09;;;;;;;0.00;0.00;;;-0.20;99.90;;;;;;5012059;28;20040;-71
2024/01/19 06:47:35;;;;;;;5.38;0.25;;;-0.10;99.90;;;;;;5011784;28;20124;-71
2024/01/19 06:50:01;;;;;;;0.00;0.00;;;0.00;99.90;;;;;;5012105;28;20116;-71
2024/01/19 06:52:26;;;;;;;0.00;0.00;;;0.00;99.90;;;;;;5012238;28;20049;-72
2024/01/19 06:54:52;;;;;;;0.00;0.00;;;0.10;99.90;;;;;;5016319;28;20449;-71
2024/01/19 06:57:18;;;;;;;0.00;0.00;;;0.10;99.90;;;;;;5011479;28;20065;-71
2024/01/19 06:59:43;;;;;;;2.58;0.43;;;0.10;99.90;;;;;;5009554;28;20110;-71
2024/01/19 07:02:09;;;;;;;0.00;0.00;;;0.10;99.90;;;;;;5011068;28;20079;-71
2024/01/19 07:04:38;;;;;;;0.00;0.00;;;0.10;99.90;;;;;;5012956;28;20041;-71
2024/01/19 07:07:03;;;;;;;1.15;0.77;;;0.20;99.90;;;;;;5008582;28;20045;-71
2024/01/19 07:09:29;;;;;;;0.30;0.20;;;0.20;99.90;;;;;;4997117;28;20048;-71
2024/01/19 07:11:55;;;;;;;1.27;0.55;;;0.10;99.90;;;;;;5012556;28;20452;-71
2024/01/19 07:14:21;;;;;;;0.00;0.00;;;0.10;99.90;;;;;;5011972;28;20048;-71
2024/01/19 07:16:47;;;;;;;5.05;0.43;;;0.00;99.90;;;;;;5014088;28;20045;-72
2024/01/19 07:19:12;;;;;;;3.45;0.77;;;0.00;99.90;;;;;;5011554;28;20048;-70
2024/01/19 07:21:40;;;;;;;0.75;0.32;;;-0.10;99.90;;;;;;5014286;28;20046;-70
2024/01/19 07:24:07;;;;;;;0.00;0.00;;;-0.10;99.90;;;;;;5006320;28;20404;-70
2024/01/19 07:26:34;;;;;;;0.75;0.20;;;-0.20;99.90;;;;;;5006888;28;20048;-70
2024/01/19 07:29:04;;;;;;;0.30;0.15;;;-0.20;99.90;;;;;;5011685;28;20157;-70
2024/01/19 07:31:30;;;;;;;0.00;0.00;;;-0.20;99.90;;;;;;5009885;28;20048;-70
2024/01/19 07:33:56;;;;;;;0.03;0.03;;;-0.20;99.90;;;;;;4998990;28;20429;-70
2024/01/19 07:36:22;;;;;;;2.75;0.90;;;-0.30;99.90;;;;;;5010155;28;20071;-70
2024/01/19 07:38:47;;;;;;;0.20;0.10;;;-0.30;99.90;;;;;;5012472;28;20047;-71
2024/01/19 07:41:13;;;;;;;1.92;0.13;;;-0.30;99.90;;;;;;5013182;28;20049;-70
2024/01/19 07:43:39;;;;;;;0.00;0.00;;;-0.30;99.90;;;;;;5012247;28;20053;-70
2024/01/19 07:46:05;;;;;;;0.00;0.00;;;-0.10;99.90;;;;;;5012718;28;20046;-71
2024/01/19 07:48:31;;;;;;;0.00;0.00;;;-0.20;99.90;;;;;;5012421;28;20512;-71
2024/01/19 07:50:57;;;;;;;0.30;0.05;;;-0.20;99.90;;;;;;4998729;28;20033;-70
2024/01/19 07:53:23;;;;;;;3.13;0.10;;;-0.20;99.90;;;;;;5013111;28;20484;-71
2024/01/19 07:55:48;;;;;;;0.60;0.03;;;-0.20;99.90;;;;;;5010857;28;20294;-70
2024/01/19 07:58:14;;;;;;;0.32;0.20;;;-0.10;99.90;;;;;;5016313;28;20041;-71
2024/01/19 08:00:40;;;;;;;0.55;0.20;;;-0.10;99.90;;;;;;5012861;28;20163;-70
2024/01/19 08:03:05;;;;;;;0.08;0.08;;;0.00;99.90;;;;;;5014245;28;20121;-70
2024/01/19 08:05:31;;;;;;;0.00;0.00;;;0.10;99.90;;;;;;5021335;28;20107;-71
2024/01/19 08:07:57;;;;;;;0.10;0.10;;;0.20;99.90;;;;;;5010067;28;20056;-70
2024/01/19 08:10:22;;;;;;;0.55;0.30;;;0.20;99.90;;;;;;4999104;28;20131;-70
2024/01/19 08:12:48;;;;;;;0.10;0.10;;;0.30;99.90;;;;;;5010654;28;20061;-70
2024/01/19 08:15:14;;;;;;;1.38;0.90;;;0.40;99.90;;;;;;5012261;28;20116;-70
2024/01/19 08:17:49;;;;;;;0.30;0.08;;;0.60;99.90;;;;;;4997039;28;20053;-70
2024/01/19 08:20:18;;;;;;;0.08;0.05;;;0.60;99.90;;;;;;5003598;28;20497;-71
2024/01/19 08:22:44;;;;;;;0.10;0.10;;;0.60;99.90;;;;;;4998829;28;20041;-71
2024/01/19 08:25:10;;;;;;;0.00;0.00;;;0.60;99.90;;;;;;5009577;28;20050;-71
2024/01/19 08:27:40;;;;;;;0.10;0.10;;;0.60;99.90;;;;;;4990631;28;20126;-71
2024/01/19 08:30:07;;;;;;;0.10;0.08;;;0.60;99.90;;;;;;5011208;28;20036;-71
2024/01/19 08:32:32;;;;;;;1.92;0.20;;;0.60;99.90;;;;;;5013007;28;20032;-71
2024/01/19 08:34:58;;;;;;;0.00;0.00;;;0.60;99.90;;;;;;5011992;28;20041;-71
2024/01/19 08:37:24;;;;;;;0.65;0.20;;;0.60;99.90;;;;;;5010948;28;20052;-72
2024/01/19 08:39:49;;;;;;;0.00;0.00;;;0.50;99.90;;;;;;5011351;28;20137;-72
2024/01/19 08:42:15;;;;;;;0.00;0.00;;;0.60;99.90;;;;;;5012964;28;20511;-72
2024/01/19 08:44:44;;;;;;;0.32;0.10;;;0.50;99.90;;;;;;5011986;28;20085;-72
2024/01/19 08:47:10;;;;;;;0.43;0.35;;;0.60;99.90;;;;;;5009694;28;20044;-72
2024/01/19 08:49:36;;;;;;;0.00;0.00;;;0.60;99.90;;;;;;5027036;28;20061;-72
2024/01/19 08:52:02;;;;;;;0.00;0.00;;;0.70;99.90;;;;;;5010127;28;20052;-72
2024/01/19 08:54:28;;;;;;;0.03;0.03;;;0.80;99.90;;;;;;5011092;28;20030;-73
2024/01/19 08:56:54;;;;;;;0.00;0.00;;;0.80;99.90;;;;;;5012111;28;20506;-72
2024/01/19 08:59:21;;;;;;;0.00;0.00;;;0.80;99.90;;;;;;5013007;28;20043;-73
2024/01/19 09:01:47;;;;;;;0.00;0.00;;;0.90;99.90;;;;;;5010156;28;20096;-73
2024/01/19 09:04:13;;;;;;;0.00;0.00;;;0.90;99.90;;;;;;5010535;28;20521;-72
2024/01/19 09:06:39;;;;;;;3.42;0.90;;;0.90;99.90;;;;;;5013670;28;20116;-73
2024/01/19 09:09:04;;;;;;;0.08;0.08;;;0.90;99.90;;;;;;5005842;28;20117;-73
2024/01/19 09:11:34;;;;;;;0.20;0.20;;;1.00;99.90;;;;;;5011573;28;20092;-73
2024/01/19 09:14:00;;;;;;;4.38;0.28;;;1.00;99.90;;;;;;5025624;28;20076;-73
2024/01/19 09:16:25;;;;;;;0.17;0.10;;;1.00;99.90;;;;;;5012159;28;20052;-73
2024/01/19 09:18:51;;;;;;;0.65;0.57;;;1.10;99.90;;;;;;5009292;28;20071;-73
2024/01/19 09:21:20;;;;;;;2.42;0.20;;;1.10;99.90;;;;;;5010594;28;20069;-73
2024/01/19 09:23:46;;;;;;;0.30;0.20;;;1.10;99.90;;;;;;5008125;28;20488;-73
2024/01/19 09:26:21;;;;;;;0.10;0.10;;;1.20;99.90;;;;;;5011868;28;20038;-73
2024/01/19 09:28:47;;;;;;;0.55;0.30;;;1.20;99.90;;;;;;5010918;28;20107;-73
2024/01/19 09:31:16;;;;;;;0.98;0.40;;;1.30;99.90;;;;;;5021742;28;20096;-73
2024/01/19 09:33:42;;;;;;;0.15;0.05;;;1.30;99.90;;;;;;5010069;28;20112;-73
2024/01/19 09:36:08;;;;;;;5.50;0.47;;;1.30;99.90;;;;;;5011199;28;20045;-73
2024/01/19 09:38:37;;;;;;;0.00;0.00;;;1.40;99.90;;;;;;5010134;28;20048;-74
2024/01/19 09:41:30;;;;;;;0.35;0.22;;;1.30;99.90;;;;;;5020179;28;20132;-73
2024/01/19 09:43:57;;;;;;;0.57;0.38;;;1.40;99.90;;;;;;4992898;28;20087;-73
2024/01/19 09:46:30;;;;;;;1.60;0.13;;;1.40;99.90;;;;;;5008273;28;20041;-74
2024/01/19 09:49:02;;;;;;;0.50;0.40;;;1.40;99.90;;;;;;5011453;28;20042;-74
2024/01/19 09:51:40;;;;;;;0.98;0.38;;;1.50;99.90;;;;;;4999707;28;20048;-74
2024/01/19 09:54:09;;;;;;;0.00;0.00;;;1.50;99.90;;;;;;5024039;28;20083;-73
2024/01/19 09:56:35;;;;;;;0.10;0.10;;;1.60;99.90;;;;;;4994847;28;20389;-73
2024/01/19 09:59:04;;;;;;;0.20;0.15;;;1.80;99.90;;;;;;5010879;28;20499;-73
2024/01/19 10:01:31;;;;;;;0.28;0.28;;;1.90;99.90;;;;;;5011351;28;20119;-73
2024/01/19 10:04:00;;;;;;;0.25;0.25;;;1.90;99.90;;;;;;5010338;28;20068;-73
2024/01/19 10:06:27;;;;;;;0.10;0.10;;;1.90;99.90;;;;;;5011331;28;20440;-74
2024/01/19 10:08:55;;;;;;;1.65;0.60;;;1.90;99.90;;;;;;5010293;28;20033;-73
2024/01/19 10:11:22;;;;;;;5.45;0.47;;;1.90;99.90;;;;;;5010965;28;20041;-74
2024/01/19 10:13:48;;;;;;;0.40;0.30;;;2.00;99.90;;;;;;5010939;28;20040;-73
2024/01/19 10:16:13;;;;;;;1.15;0.52;;;2.00;99.90;;;;;;5011404;28;20399;-74
2024/01/19 10:18:41;;;;;;;7.65;0.45;;;2.00;99.90;;;;;;5009822;28;20054;-73
2024/01/19 10:21:07;;;;;;;0.20;0.20;;;2.00;99.90;;;;;;5011430;28;20096;-74
2024/01/19 10:23:33;;;;;;;0.10;0.10;;;2.10;99.90;;;;;;5017397;28;20050;-74
2024/01/19 10:26:15;;;;;;;0.30;0.25;;;2.10;99.90;;;;;;5016128;28;20102;-74
2024/01/19 10:28:40;;;;;;;0.20;0.17;;;2.10;99.90;;;;;;5009493;28;20493;-74
2024/01/19 10:31:17;;;;;;;0.65;0.55;;;2.10;99.90;;;;;;5009932;28;20030;-73
2024/01/19 10:34:01;;;;;;;1.80;0.47;;;2.20;99.90;;;;;;5009427;28;20038;-74
2024/01/19 10:36:36;;;;;;;0.30;0.20;;;2.20;99.90;;;;;;5010271;28;20497;-73
2024/01/19 10:39:15;;;;;;;0.20;0.10;;;2.30;99.90;;;;;;5007615;28;20465;-74
2024/01/19 10:41:41;;;;;;;0.70;0.30;;;2.30;99.90;;;;;;5008433;28;20472;-73
2024/01/19 10:44:11;;;;;;;0.55;0.32;;;2.40;99.90;;;;;;5010672;28;20045;-72
2024/01/19 10:46:37;;;;;;;0.10;0.10;;;2.40;99.90;;;;;;5007333;28;20033;-73
2024/01/19 10:49:04;;;;;;;0.10;0.10;;;2.40;99.90;;;;;;4993809;28;20129;-73
2024/01/19 10:51:32;;;;;;;0.17;0.17;;;2.40;99.90;;;;;;5010296;28;20489;-73
2024/01/19 10:54:02;;;;;;;2.30;0.45;;;2.40;99.90;;;;;;5009950;28;20069;-73
2024/01/19 10:56:28;;;;;;;1.20;0.45;;;2.40;99.90;;;;;;5023040;28;20037;-73
2024/01/19 10:58:54;;;;;;;1.15;0.28;;;2.40;99.90;;;;;;5012213;28;20056;-73
2024/01/19 11:01:19;;;;;;;0.00;0.00;;;2.40;99.90;;;;;;4988451;28;20099;-73
2024/01/19 11:03:45;;;;;;;0.25;0.08;;;2.50;99.90;;;;;;5010672;28;20048;-73
2024/01/19 11:06:11;;;;;;;0.70;0.30;;;2.50;99.90;;;;;;5012932;28;20056;-71
2024/01/19 11:08:38;;;;;;;0.15;0.15;;;2.50;99.90;;;;;;5012183;28;20053;-71
2024/01/19 11:11:05;;;;;;;4.07;0.45;;;2.50;99.90;;;;;;5017412;28;20126;-71
2024/01/19 11:13:43;;;;;;;0.20;0.20;;;2.50;99.90;;;;;;5013064;28;20092;-71
2024/01/19 11:16:14;;;;;;;0.95;0.77;;;2.50;99.90;;;;;;5003062;28;20505;-72
2024/01/19 11:18:41;;;;;;;1.40;0.28;;;2.60;99.90;;;;;;5011972;28;20056;-72
2024/01/19 11:21:07;;;;;;;0.85;0.30;;;2.60;99.90;;;;;;5014586;28;20081;-72
2024/01/19 11:23:34;;;;;;;1.38;0.28;;;2.70;99.90;;;;;;5012655;28;20142;-72
2024/01/19 11:26:18;;;;;;;0.77;0.40;;;2.70;99.90;;;;;;4995124;28;20429;-72
2024/01/19 11:29:14;;;;;;;2.28;0.88;;;2.80;99.90;;;;;;5010245;28;20034;-72
2024/01/19 11:31:40;;;;;;;1.08;0.85;;;2.80;99.90;;;;;;5029371;28;20037;-72
2024/01/19 11:34:06;;;;;;;0.68;0.22;;;2.90;99.90;;;;;;5013503;28;20110;-72
2024/01/19 11:36:41;;;;;;;0.28;0.28;;;2.90;99.90;;;;;;5010159;28;20060;-73
2024/01/19 11:39:14;;;;;;;0.80;0.45;;;2.90;99.90;;;;;;5031817;28;20159;-72
2024/01/19 11:41:43;;;;;;;0.80;0.30;;;2.90;99.90;;;;;;5013767;28;20124;-71
2024/01/19 11:44:10;;;;;;;3.83;0.88;;;3.00;99.90;;;;;;5014697;28;20056;-72
2024/01/19 11:46:43;;;;;;;0.30;0.20;;;3.00;99.90;;;;;;5013071;28;20045;-72
2024/01/19 11:49:29;;;;;;;0.30;0.20;;;3.10;99.90;;;;;;5014017;28;20250;-71
2024/01/19 11:51:56;;;;;;;0.20;0.10;;;3.10;99.90;;;;;;4999446;28;20088;-71
2024/01/19 11:54:32;;;;;;;2.13;0.35;;;3.10;99.90;;;;;;5015804;28;20172;-71
2024/01/19 11:57:16;;;;;;;0.15;0.15;;;3.10;99.90;;;;;;5029382;28;20067;-71
2024/01/19 11:59:43;;;;;;;2.85;1.25;;;3.20;99.90;;;;;;5012067;28;20033;-71
2024/01/19 12:02:19;;;;;;;0.70;0.30;;;3.20;99.90;;;;;;5013028;28;20401;-71
2024/01/19 12:04:47;;;;;;;0.82;0.38;;;3.20;99.90;;;;;;5011785;28;20487;-71
2024/01/19 12:07:22;;;;;;;0.45;0.30;;;3.20;99.90;;;;;;5009982;28;20034;-71
2024/01/19 12:10:11;;;;;;;0.00;0.00;;;3.20;99.90;;;;;;5012514;28;20448;-71
2024/01/19 12:12:38;;;;;;;3.78;0.77;;;3.30;99.90;;;;;;5028124;28;20073;-71
2024/01/19 12:15:06;;;;;;;0.35;0.20;;;3.30;99.90;;;;;;5012504;28;20053;-71
2024/01/19 12:17:33;;;;;;;0.68;0.10;;;3.30;99.90;;;;;;5009088;28;20566;-71
2024/01/19 12:19:59;;;;;;;2.78;0.50;;;3.40;99.90;;;;;;5013761;28;20204;-71
2024/01/19 12:22:25;;;;;;;0.65;0.35;;;3.40;99.90;;;;;;5011031;28;21063;-72
2024/01/19 12:24:50;;;;;;;0.17;0.17;;;3.40;99.90;;;;;;5014206;28;20116;-72
2024/01/19 12:27:20;;;;;;;0.30;0.25;;;3.50;99.90;;;;;;5012235;28;20489;-72
2024/01/19 12:29:46;;;;;;;0.10;0.10;;;3.50;99.90;;;;;;5010876;28;20042;-72
2024/01/19 12:32:13;;;;;;;0.20;0.10;;;3.50;99.90;;;;;;5011749;28;20048;-72
2024/01/19 12:34:40;;;;;;;0.25;0.25;;;3.50;99.90;;;;;;5012538;28;20123;-72
2024/01/19 12:37:06;;;;;;;6.13;1.35;;;3.60;99.90;;;;;;5009363;28;20461;-72
2024/01/19 12:39:31;;;;;;;0.50;0.38;;;3.60;99.90;;;;;;5010930;28;20072;-72
2024/01/19 12:42:02;;;;;;;1.80;0.73;;;3.60;99.90;;;;;;4996087;28;20128;-72
2024/01/19 12:44:28;;;;;;;3.80;0.82;;;3.70;99.90;;;;;;5012021;28;20041;-72
2024/01/19 12:46:58;;;;;;;1.38;0.38;;;3.80;99.90;;;;;;5015072;28;20053;-72
2024/01/19 12:49:24;;;;;;;1.92;0.32;;;3.80;99.90;;;;;;5013270;28;20125;-72
2024/01/19 12:51:50;;;;;;;4.75;0.50;;;3.90;99.90;;;;;;5012394;28;20120;-72